sensor_id;sensor_type;location;lat;lon;timestamp;temperature;humidity
65231;DHT22;51813;40.666;16.602;2023-05-07T00:01:35;19.00;57.40
65231;DHT22;51813;40.666;16.602;2023-05-07T00:04:01;19.00;57.40
65231;DHT22;51813;40.666;16.602;2023-05-07T00:06:27;19.00;57.30
65231;DHT22;51813;40.666;16.602;2023-05-07T00:08:54;19.00;57.30
65231;DHT22;51813;40.666;16.602;2023-05-07T00:11:20;19.00;57.40
65231;DHT22;51813;40.666;16.602;2023-05-07T00:13:47;19.00;57.20
65231;DHT22;51813;40.666;16.602;2023-05-07T00:16:13;19.00;57.40
65231;DHT22;51813;40.666;16.602;2023-05-07T00:18:38;19.00;57.40
65231;DHT22;51813;40.666;16.602;2023-05-07T00:21:04;18.90;57.50
65231;DHT22;51813;40.666;16.602;2023-05-07T00:23:30;18.90;57.50
65231;DHT22;51813;40.666;16.602;2023-05-07T00:25:56;18.90;57.40
65231;DHT22;51813;40.666;16.602;2023-05-07T00:28:21;18.90;57.20
65231;DHT22;51813;40.666;16.602;2023-05-07T00:30:47;18.90;57.30
65231;DHT22;51813;40.666;16.602;2023-05-07T00:33:13;18.90;57.40
65231;DHT22;51813;40.666;16.602;2023-05-07T00:35:38;18.90;57.30
65231;DHT22;51813;40.666;16.602;2023-05-07T00:38:04;18.90;57.30
65231;DHT22;51813;40.666;16.602;2023-05-07T00:40:30;18.90;57.40
65231;DHT22;51813;40.666;16.602;2023-05-07T00:42:56;18.90;57.20
65231;DHT22;51813;40.666;16.602;2023-05-07T00:45:26;18.90;57.30
65231;DHT22;51813;40.666;16.602;2023-05-07T00:47:57;18.90;57.30
65231;DHT22;51813;40.666;16.602;2023-05-07T00:50:25;18.90;57.20
65231;DHT22;51813;40.666;16.602;2023-05-07T00:52:51;18.90;57.00
65231;DHT22;51813;40.666;16.602;2023-05-07T00:55:17;18.90;57.20
65231;DHT22;51813;40.666;16.602;2023-05-07T00:57:43;18.90;57.20
65231;DHT22;51813;40.666;16.602;2023-05-07T01:00:10;18.90;57.30
65231;DHT22;51813;40.666;16.602;2023-05-07T01:02:38;18.90;57.20
65231;DHT22;51813;40.666;16.602;2023-05-07T01:05:06;18.90;57.10
65231;DHT22;51813;40.666;16.602;2023-05-07T01:07:33;18.90;57.10
65231;DHT22;51813;40.666;16.602;2023-05-07T01:10:00;18.90;57.10
65231;DHT22;51813;40.666;16.602;2023-05-07T01:12:28;18.90;57.10
65231;DHT22;51813;40.666;16.602;2023-05-07T01:14:54;18.90;57.10
65231;DHT22;51813;40.666;16.602;2023-05-07T01:17:20;18.90;56.90
65231;DHT22;51813;40.666;16.602;2023-05-07T01:19:46;18.90;57.10
65231;DHT22;51813;40.666;16.602;2023-05-07T01:22:15;18.90;57.10
65231;DHT22;51813;40.666;16.602;2023-05-07T01:24:42;18.80;57.10
65231;DHT22;51813;40.666;16.602;2023-05-07T01:27:08;18.90;57.20
65231;DHT22;51813;40.666;16.602;2023-05-07T01:29:34;18.90;57.10
65231;DHT22;51813;40.666;16.602;2023-05-07T01:32:00;18.80;57.10
65231;DHT22;51813;40.666;16.602;2023-05-07T01:34:32;18.90;57.00
65231;DHT22;51813;40.666;16.602;2023-05-07T01:37:00;18.90;57.00
65231;DHT22;51813;40.666;16.602;2023-05-07T01:39:29;18.80;57.00
65231;DHT22;51813;40.666;16.602;2023-05-07T01:41:56;18.80;57.00
65231;DHT22;51813;40.666;16.602;2023-05-07T01:44:22;18.80;57.30
65231;DHT22;51813;40.666;16.602;2023-05-07T01:46:49;18.80;56.90
65231;DHT22;51813;40.666;16.602;2023-05-07T01:49:15;18.90;56.80
65231;DHT22;51813;40.666;16.602;2023-05-07T01:51:41;18.90;56.90
65231;DHT22;51813;40.666;16.602;2023-05-07T01:54:07;18.90;56.90
65231;DHT22;51813;40.666;16.602;2023-05-07T01:56:33;18.80;56.90
65231;DHT22;51813;40.666;16.602;2023-05-07T01:58:59;18.80;56.90
65231;DHT22;51813;40.666;16.602;2023-05-07T02:01:25;18.80;56.90
65231;DHT22;51813;40.666;16.602;2023-05-07T02:03:51;18.80;56.90
65231;DHT22;51813;40.666;16.602;2023-05-07T02:06:17;18.80;56.90
65231;DHT22;51813;40.666;16.602;2023-05-07T02:08:43;18.80;56.80
65231;DHT22;51813;40.666;16.602;2023-05-07T02:11:08;18.80;56.80
65231;DHT22;51813;40.666;16.602;2023-05-07T02:13:34;18.90;57.00
65231;DHT22;51813;40.666;16.602;2023-05-07T02:16:00;18.80;56.90
65231;DHT22;51813;40.666;16.602;2023-05-07T02:18:26;18.80;56.80
65231;DHT22;51813;40.666;16.602;2023-05-07T02:20:52;18.80;56.90
65231;DHT22;51813;40.666;16.602;2023-05-07T02:23:18;18.80;56.90
65231;DHT22;51813;40.666;16.602;2023-05-07T02:25:43;18.80;57.00
65231;DHT22;51813;40.666;16.602;2023-05-07T02:28:09;18.80;57.10
65231;DHT22;51813;40.666;16.602;2023-05-07T02:30:37;18.80;57.00
65231;DHT22;51813;40.666;16.602;2023-05-07T02:33:02;18.80;57.00
65231;DHT22;51813;40.666;16.602;2023-05-07T02:35:28;18.80;57.00
65231;DHT22;51813;40.666;16.602;2023-05-07T02:37:54;18.80;57.00
65231;DHT22;51813;40.666;16.602;2023-05-07T02:40:19;18.80;57.00
65231;DHT22;51813;40.666;16.602;2023-05-07T02:42:45;18.80;56.90
65231;DHT22;51813;40.666;16.602;2023-05-07T02:45:11;18.80;56.90
65231;DHT22;51813;40.666;16.602;2023-05-07T02:47:36;18.80;57.00
65231;DHT22;51813;40.666;16.602;2023-05-07T02:50:03;18.80;57.00
65231;DHT22;51813;40.666;16.602;2023-05-07T02:52:29;18.80;57.00
65231;DHT22;51813;40.666;16.602;2023-05-07T02:54:54;18.80;57.00
65231;DHT22;51813;40.666;16.602;2023-05-07T02:57:20;18.80;57.00
65231;DHT22;51813;40.666;16.602;2023-05-07T02:59:46;18.80;57.10
65231;DHT22;51813;40.666;16.602;2023-05-07T03:02:11;18.80;57.00
65231;DHT22;51813;40.666;16.602;2023-05-07T03:04:40;18.80;57.00
65231;DHT22;51813;40.666;16.602;2023-05-07T03:07:05;18.80;57.10
65231;DHT22;51813;40.666;16.602;2023-05-07T03:09:31;18.80;57.70
65231;DHT22;51813;40.666;16.602;2023-05-07T03:11:57;18.80;57.10
65231;DHT22;51813;40.666;16.602;2023-05-07T03:14:22;18.80;57.00
65231;DHT22;51813;40.666;16.602;2023-05-07T03:16:49;18.80;57.10
65231;DHT22;51813;40.666;16.602;2023-05-07T03:19:15;18.80;57.10
65231;DHT22;51813;40.666;16.602;2023-05-07T03:21:41;18.80;57.20
65231;DHT22;51813;40.666;16.602;2023-05-07T03:24:06;18.80;57.20
65231;DHT22;51813;40.666;16.602;2023-05-07T03:26:32;18.80;57.20
65231;DHT22;51813;40.666;16.602;2023-05-07T03:28:58;18.80;57.10
65231;DHT22;51813;40.666;16.602;2023-05-07T03:31:24;18.80;57.20
65231;DHT22;51813;40.666;16.602;2023-05-07T03:33:51;18.80;57.20
65231;DHT22;51813;40.666;16.602;2023-05-07T03:36:17;18.80;57.20
65231;DHT22;51813;40.666;16.602;2023-05-07T03:38:43;18.80;57.10
65231;DHT22;51813;40.666;16.602;2023-05-07T03:41:09;18.70;57.10
65231;DHT22;51813;40.666;16.602;2023-05-07T03:43:34;18.80;57.10
65231;DHT22;51813;40.666;16.602;2023-05-07T03:46:00;18.70;57.10
65231;DHT22;51813;40.666;16.602;2023-05-07T03:48:26;18.70;57.10
65231;DHT22;51813;40.666;16.602;2023-05-07T03:50:52;18.70;57.20
65231;DHT22;51813;40.666;16.602;2023-05-07T03:53:17;18.70;57.90
65231;DHT22;51813;40.666;16.602;2023-05-07T03:55:43;18.70;57.10
65231;DHT22;51813;40.666;16.602;2023-05-07T03:58:09;18.70;57.20
65231;DHT22;51813;40.666;16.602;2023-05-07T04:00:34;18.70;57.10
65231;DHT22;51813;40.666;16.602;2023-05-07T04:03:04;18.70;57.20
65231;DHT22;51813;40.666;16.602;2023-05-07T04:05:30;18.70;57.30
65231;DHT22;51813;40.666;16.602;2023-05-07T04:07:58;18.70;57.20
65231;DHT22;51813;40.666;16.602;2023-05-07T04:10:24;18.70;57.20
65231;DHT22;51813;40.666;16.602;2023-05-07T04:12:49;18.70;57.20
65231;DHT22;51813;40.666;16.602;2023-05-07T04:15:15;18.70;57.30
65231;DHT22;51813;40.666;16.602;2023-05-07T04:17:41;18.70;57.30
65231;DHT22;51813;40.666;16.602;2023-05-07T04:20:09;18.70;57.30
65231;DHT22;51813;40.666;16.602;2023-05-07T04:22:36;18.70;57.30
65231;DHT22;51813;40.666;16.602;2023-05-07T04:25:02;18.70;57.40
65231;DHT22;51813;40.666;16.602;2023-05-07T04:27:28;18.70;57.40
65231;DHT22;51813;40.666;16.602;2023-05-07T04:29:54;18.70;57.40
65231;DHT22;51813;40.666;16.602;2023-05-07T04:32:22;18.70;57.40
65231;DHT22;51813;40.666;16.602;2023-05-07T04:34:47;18.70;57.50
65231;DHT22;51813;40.666;16.602;2023-05-07T04:37:13;18.70;57.50
65231;DHT22;51813;40.666;16.602;2023-05-07T04:39:39;18.70;57.50
65231;DHT22;51813;40.666;16.602;2023-05-07T04:42:04;18.70;57.50
65231;DHT22;51813;40.666;16.602;2023-05-07T04:44:32;18.70;57.60
65231;DHT22;51813;40.666;16.602;2023-05-07T04:46:59;18.70;57.60
65231;DHT22;51813;40.666;16.602;2023-05-07T04:49:25;18.70;57.70
65231;DHT22;51813;40.666;16.602;2023-05-07T04:51:51;18.70;57.70
65231;DHT22;51813;40.666;16.602;2023-05-07T04:54:16;18.70;57.70
65231;DHT22;51813;40.666;16.602;2023-05-07T04:56:42;18.70;57.70
65231;DHT22;51813;40.666;16.602;2023-05-07T04:59:08;18.70;57.80
65231;DHT22;51813;40.666;16.602;2023-05-07T05:01:33;18.70;57.80
65231;DHT22;51813;40.666;16.602;2023-05-07T05:03:59;18.70;57.90
65231;DHT22;51813;40.666;16.602;2023-05-07T05:06:25;18.70;57.90
65231;DHT22;51813;40.666;16.602;2023-05-07T05:08:51;18.70;57.90
65231;DHT22;51813;40.666;16.602;2023-05-07T05:11:17;18.70;57.80
65231;DHT22;51813;40.666;16.602;2023-05-07T05:13:42;18.70;57.90
65231;DHT22;51813;40.666;16.602;2023-05-07T05:16:08;18.70;58.00
65231;DHT22;51813;40.666;16.602;2023-05-07T05:18:34;18.70;58.00
65231;DHT22;51813;40.666;16.602;2023-05-07T05:21:00;18.70;58.00
65231;DHT22;51813;40.666;16.602;2023-05-07T05:23:27;18.70;58.10
65231;DHT22;51813;40.666;16.602;2023-05-07T05:25:56;18.70;58.10
65231;DHT22;51813;40.666;16.602;2023-05-07T05:28:25;18.70;58.10
65231;DHT22;51813;40.666;16.602;2023-05-07T05:30:51;18.70;58.20
65231;DHT22;51813;40.666;16.602;2023-05-07T05:33:16;18.70;58.30
65231;DHT22;51813;40.666;16.602;2023-05-07T05:35:42;18.70;58.20
65231;DHT22;51813;40.666;16.602;2023-05-07T05:38:08;18.70;58.20
65231;DHT22;51813;40.666;16.602;2023-05-07T05:40:34;18.70;58.20
65231;DHT22;51813;40.666;16.602;2023-05-07T05:43:00;18.70;58.30
65231;DHT22;51813;40.666;16.602;2023-05-07T05:45:25;18.70;58.30
65231;DHT22;51813;40.666;16.602;2023-05-07T05:47:51;18.70;58.30
65231;DHT22;51813;40.666;16.602;2023-05-07T05:50:17;18.80;58.50
65231;DHT22;51813;40.666;16.602;2023-05-07T05:52:43;18.80;58.50
65231;DHT22;51813;40.666;16.602;2023-05-07T05:55:09;18.80;58.50
65231;DHT22;51813;40.666;16.602;2023-05-07T05:57:34;18.80;58.20
65231;DHT22;51813;40.666;16.602;2023-05-07T06:00:01;18.80;58.00
65231;DHT22;51813;40.666;16.602;2023-05-07T06:02:27;18.80;58.10
65231;DHT22;51813;40.666;16.602;2023-05-07T06:04:53;18.80;58.60
65231;DHT22;51813;40.666;16.602;2023-05-07T06:07:19;18.80;57.90
65231;DHT22;51813;40.666;16.602;2023-05-07T06:09:45;18.90;58.00
65231;DHT22;51813;40.666;16.602;2023-05-07T06:12:11;18.80;58.00
65231;DHT22;51813;40.666;16.602;2023-05-07T06:14:37;18.80;58.20
65231;DHT22;51813;40.666;16.602;2023-05-07T06:17:02;18.80;58.20
65231;DHT22;51813;40.666;16.602;2023-05-07T06:19:28;18.80;58.30
65231;DHT22;51813;40.666;16.602;2023-05-07T06:21:54;18.80;58.40
65231;DHT22;51813;40.666;16.602;2023-05-07T06:24:22;18.80;58.50
65231;DHT22;51813;40.666;16.602;2023-05-07T06:26:48;18.80;58.50
65231;DHT22;51813;40.666;16.602;2023-05-07T06:29:13;18.80;58.60
65231;DHT22;51813;40.666;16.602;2023-05-07T06:31:39;18.80;58.60
65231;DHT22;51813;40.666;16.602;2023-05-07T06:34:05;18.80;58.40
65231;DHT22;51813;40.666;16.602;2023-05-07T06:36:31;18.80;58.50
65231;DHT22;51813;40.666;16.602;2023-05-07T06:38:56;18.80;58.40
65231;DHT22;51813;40.666;16.602;2023-05-07T06:41:22;18.80;58.60
65231;DHT22;51813;40.666;16.602;2023-05-07T06:43:48;18.80;58.50
65231;DHT22;51813;40.666;16.602;2023-05-07T06:46:13;18.80;58.50
65231;DHT22;51813;40.666;16.602;2023-05-07T06:48:39;18.80;58.50
65231;DHT22;51813;40.666;16.602;2023-05-07T06:51:04;18.80;58.50
65231;DHT22;51813;40.666;16.602;2023-05-07T06:53:30;18.90;58.60
65231;DHT22;51813;40.666;16.602;2023-05-07T06:55:56;18.80;58.30
65231;DHT22;51813;40.666;16.602;2023-05-07T06:58:22;18.80;58.50
65231;DHT22;51813;40.666;16.602;2023-05-07T07:00:48;18.80;58.40
65231;DHT22;51813;40.666;16.602;2023-05-07T07:03:14;18.80;58.20
65231;DHT22;51813;40.666;16.602;2023-05-07T07:05:43;18.90;58.50
65231;DHT22;51813;40.666;16.602;2023-05-07T07:08:09;18.90;58.30
65231;DHT22;51813;40.666;16.602;2023-05-07T07:10:35;18.90;58.30
65231;DHT22;51813;40.666;16.602;2023-05-07T07:13:00;18.90;58.40
65231;DHT22;51813;40.666;16.602;2023-05-07T07:15:26;18.90;58.40
65231;DHT22;51813;40.666;16.602;2023-05-07T07:17:52;18.90;58.50
65231;DHT22;51813;40.666;16.602;2023-05-07T07:20:17;18.90;58.40
65231;DHT22;51813;40.666;16.602;2023-05-07T07:22:43;18.90;58.40
65231;DHT22;51813;40.666;16.602;2023-05-07T07:25:09;18.90;58.50
65231;DHT22;51813;40.666;16.602;2023-05-07T07:27:35;18.90;58.40
65231;DHT22;51813;40.666;16.602;2023-05-07T07:30:01;18.90;58.50
65231;DHT22;51813;40.666;16.602;2023-05-07T07:32:27;18.90;58.40
65231;DHT22;51813;40.666;16.602;2023-05-07T07:34:52;18.90;58.40
65231;DHT22;51813;40.666;16.602;2023-05-07T07:37:18;18.90;58.50
65231;DHT22;51813;40.666;16.602;2023-05-07T07:39:44;18.90;58.50
65231;DHT22;51813;40.666;16.602;2023-05-07T07:42:09;18.90;58.50
65231;DHT22;51813;40.666;16.602;2023-05-07T07:44:35;18.90;58.40
65231;DHT22;51813;40.666;16.602;2023-05-07T07:47:01;18.90;58.50
65231;DHT22;51813;40.666;16.602;2023-05-07T07:49:26;18.90;58.60
65231;DHT22;51813;40.666;16.602;2023-05-07T07:51:52;18.90;58.70
65231;DHT22;51813;40.666;16.602;2023-05-07T07:54:18;18.90;58.80
65231;DHT22;51813;40.666;16.602;2023-05-07T07:56:43;18.90;58.80
65231;DHT22;51813;40.666;16.602;2023-05-07T07:59:09;18.90;58.80
65231;DHT22;51813;40.666;16.602;2023-05-07T08:01:35;18.90;58.80
65231;DHT22;51813;40.666;16.602;2023-05-07T08:04:01;18.90;59.00
65231;DHT22;51813;40.666;16.602;2023-05-07T08:06:28;18.90;58.90
65231;DHT22;51813;40.666;16.602;2023-05-07T08:08:54;18.90;59.30
65231;DHT22;51813;40.666;16.602;2023-05-07T08:11:20;18.90;59.20
65231;DHT22;51813;40.666;16.602;2023-05-07T08:13:46;18.90;59.10
65231;DHT22;51813;40.666;16.602;2023-05-07T08:16:13;18.90;59.30
65231;DHT22;51813;40.666;16.602;2023-05-07T08:18:38;18.90;59.20
65231;DHT22;51813;40.666;16.602;2023-05-07T08:21:04;18.90;59.30
65231;DHT22;51813;40.666;16.602;2023-05-07T08:23:30;18.90;59.50
65231;DHT22;51813;40.666;16.602;2023-05-07T08:25:56;18.90;59.40
65231;DHT22;51813;40.666;16.602;2023-05-07T08:28:21;18.90;59.50
65231;DHT22;51813;40.666;16.602;2023-05-07T08:30:47;18.90;59.60
65231;DHT22;51813;40.666;16.602;2023-05-07T08:33:13;18.90;59.80
65231;DHT22;51813;40.666;16.602;2023-05-07T08:35:39;18.90;59.80
65231;DHT22;51813;40.666;16.602;2023-05-07T08:38:05;18.90;59.70
65231;DHT22;51813;40.666;16.602;2023-05-07T08:40:34;18.90;59.80
65231;DHT22;51813;40.666;16.602;2023-05-07T08:43:02;18.90;59.80
65231;DHT22;51813;40.666;16.602;2023-05-07T08:45:30;18.90;59.80
65231;DHT22;51813;40.666;16.602;2023-05-07T08:47:59;18.90;59.80
65231;DHT22;51813;40.666;16.602;2023-05-07T08:50:26;18.90;59.90
65231;DHT22;51813;40.666;16.602;2023-05-07T08:52:51;18.90;59.80
65231;DHT22;51813;40.666;16.602;2023-05-07T08:55:17;18.90;60.00
65231;DHT22;51813;40.666;16.602;2023-05-07T08:57:43;18.90;59.80
65231;DHT22;51813;40.666;16.602;2023-05-07T09:00:10;18.90;59.90
65231;DHT22;51813;40.666;16.602;2023-05-07T09:02:37;18.90;59.70
65231;DHT22;51813;40.666;16.602;2023-05-07T09:05:03;18.90;59.70
65231;DHT22;51813;40.666;16.602;2023-05-07T09:07:30;18.90;60.50
65231;DHT22;51813;40.666;16.602;2023-05-07T09:09:55;18.90;59.90
65231;DHT22;51813;40.666;16.602;2023-05-07T09:12:22;18.90;60.00
65231;DHT22;51813;40.666;16.602;2023-05-07T09:14:49;18.90;60.00
65231;DHT22;51813;40.666;16.602;2023-05-07T09:17:18;18.90;60.10
65231;DHT22;51813;40.666;16.602;2023-05-07T09:19:47;18.90;60.00
65231;DHT22;51813;40.666;16.602;2023-05-07T09:22:13;18.90;60.10
65231;DHT22;51813;40.666;16.602;2023-05-07T09:24:39;18.90;60.10
65231;DHT22;51813;40.666;16.602;2023-05-07T09:27:06;18.90;60.10
65231;DHT22;51813;40.666;16.602;2023-05-07T09:29:32;18.90;60.20
65231;DHT22;51813;40.666;16.602;2023-05-07T09:32:05;18.90;59.80
65231;DHT22;51813;40.666;16.602;2023-05-07T09:34:31;18.90;60.00
65231;DHT22;51813;40.666;16.602;2023-05-07T09:37:02;18.90;60.10
65231;DHT22;51813;40.666;16.602;2023-05-07T09:39:45;18.90;60.20
65231;DHT22;51813;40.666;16.602;2023-05-07T09:42:11;18.90;60.20
65231;DHT22;51813;40.666;16.602;2023-05-07T09:44:38;18.90;60.20
65231;DHT22;51813;40.666;16.602;2023-05-07T09:47:07;18.90;60.30
65231;DHT22;51813;40.666;16.602;2023-05-07T09:49:37;18.90;60.30
65231;DHT22;51813;40.666;16.602;2023-05-07T09:52:06;18.90;60.30
65231;DHT22;51813;40.666;16.602;2023-05-07T09:54:35;18.90;60.20
65231;DHT22;51813;40.666;16.602;2023-05-07T09:57:03;18.90;60.30
65231;DHT22;51813;40.666;16.602;2023-05-07T09:59:32;18.90;60.60
65231;DHT22;51813;40.666;16.602;2023-05-07T10:01:59;19.00;60.20
65231;DHT22;51813;40.666;16.602;2023-05-07T10:04:25;19.00;60.50
65231;DHT22;51813;40.666;16.602;2023-05-07T10:06:52;18.90;60.70
65231;DHT22;51813;40.666;16.602;2023-05-07T10:09:19;18.90;60.60
65231;DHT22;51813;40.666;16.602;2023-05-07T10:11:45;18.90;60.70
65231;DHT22;51813;40.666;16.602;2023-05-07T10:14:13;19.00;60.80
65231;DHT22;51813;40.666;16.602;2023-05-07T10:16:39;18.90;60.80
65231;DHT22;51813;40.666;16.602;2023-05-07T10:19:08;18.90;60.60
65231;DHT22;51813;40.666;16.602;2023-05-07T10:21:37;19.00;60.80
65231;DHT22;51813;40.666;16.602;2023-05-07T10:26:35;19.00;60.70
65231;DHT22;51813;40.666;16.602;2023-05-07T10:29:05;18.90;60.80
65231;DHT22;51813;40.666;16.602;2023-05-07T10:31:53;18.90;60.80
65231;DHT22;51813;40.666;16.602;2023-05-07T10:34:29;18.90;60.70
65231;DHT22;51813;40.666;16.602;2023-05-07T10:36:58;19.00;60.80
65231;DHT22;51813;40.666;16.602;2023-05-07T10:39:24;19.00;60.90
65231;DHT22;51813;40.666;16.602;2023-05-07T10:41:50;19.00;60.80
65231;DHT22;51813;40.666;16.602;2023-05-07T10:44:27;19.00;60.80
65231;DHT22;51813;40.666;16.602;2023-05-07T10:47:10;19.00;60.80
65231;DHT22;51813;40.666;16.602;2023-05-07T10:54:41;19.00;60.80
65231;DHT22;51813;40.666;16.602;2023-05-07T10:57:35;19.00;60.60
65231;DHT22;51813;40.666;16.602;2023-05-07T11:05:26;19.00;60.50
65231;DHT22;51813;40.666;16.602;2023-05-07T11:07:57;19.00;60.60
65231;DHT22;51813;40.666;16.602;2023-05-07T11:10:22;19.00;60.60
65231;DHT22;51813;40.666;16.602;2023-05-07T11:12:50;19.00;60.70
65231;DHT22;51813;40.666;16.602;2023-05-07T11:15:34;19.00;60.60
65231;DHT22;51813;40.666;16.602;2023-05-07T11:18:00;19.00;60.60
65231;DHT22;51813;40.666;16.602;2023-05-07T11:26:04;19.00;60.80
65231;DHT22;51813;40.666;16.602;2023-05-07T11:28:31;19.00;60.70
65231;DHT22;51813;40.666;16.602;2023-05-07T11:30:57;19.00;60.60
65231;DHT22;51813;40.666;16.602;2023-05-07T11:33:23;19.00;60.20
65231;DHT22;51813;40.666;16.602;2023-05-07T11:35:55;19.10;60.50
65231;DHT22;51813;40.666;16.602;2023-05-07T11:38:21;19.00;61.40
65231;DHT22;51813;40.666;16.602;2023-05-07T11:40:51;19.00;60.80
65231;DHT22;51813;40.666;16.602;2023-05-07T11:43:17;19.10;60.50
65231;DHT22;51813;40.666;16.602;2023-05-07T11:45:44;19.00;60.50
65231;DHT22;51813;40.666;16.602;2023-05-07T11:48:09;19.10;60.50
65231;DHT22;51813;40.666;16.602;2023-05-07T11:50:35;19.00;60.60
65231;DHT22;51813;40.666;16.602;2023-05-07T11:53:07;19.10;60.20
65231;DHT22;51813;40.666;16.602;2023-05-07T11:55:33;19.00;60.60
65231;DHT22;51813;40.666;16.602;2023-05-07T11:57:59;19.00;60.60
65231;DHT22;51813;40.666;16.602;2023-05-07T12:00:24;19.10;60.50
65231;DHT22;51813;40.666;16.602;2023-05-07T12:02:50;19.10;60.60
65231;DHT22;51813;40.666;16.602;2023-05-07T12:05:16;19.00;60.70
65231;DHT22;51813;40.666;16.602;2023-05-07T12:07:41;19.00;60.70
65231;DHT22;51813;40.666;16.602;2023-05-07T12:10:08;19.00;60.70
65231;DHT22;51813;40.666;16.602;2023-05-07T12:12:40;19.00;60.80
65231;DHT22;51813;40.666;16.602;2023-05-07T12:15:07;19.00;60.80
65231;DHT22;51813;40.666;16.602;2023-05-07T12:17:33;19.10;60.80
65231;DHT22;51813;40.666;16.602;2023-05-07T12:20:00;19.10;60.80
65231;DHT22;51813;40.666;16.602;2023-05-07T12:22:26;19.10;60.80
65231;DHT22;51813;40.666;16.602;2023-05-07T12:24:58;19.10;60.70
65231;DHT22;51813;40.666;16.602;2023-05-07T12:27:25;19.10;60.70
65231;DHT22;51813;40.666;16.602;2023-05-07T12:29:51;19.10;60.90
65231;DHT22;51813;40.666;16.602;2023-05-07T12:32:19;19.10;60.80
65231;DHT22;51813;40.666;16.602;2023-05-07T12:34:46;19.10;60.60
65231;DHT22;51813;40.666;16.602;2023-05-07T12:37:12;19.10;60.50
65231;DHT22;51813;40.666;16.602;2023-05-07T12:39:44;19.10;60.50
65231;DHT22;51813;40.666;16.602;2023-05-07T12:42:15;19.10;60.70
65231;DHT22;51813;40.666;16.602;2023-05-07T12:44:41;19.10;60.40
65231;DHT22;51813;40.666;16.602;2023-05-07T12:47:10;19.10;60.40
65231;DHT22;51813;40.666;16.602;2023-05-07T12:49:36;19.10;60.70
65231;DHT22;51813;40.666;16.602;2023-05-07T12:52:05;19.10;60.40
65231;DHT22;51813;40.666;16.602;2023-05-07T12:54:37;19.10;60.40
65231;DHT22;51813;40.666;16.602;2023-05-07T12:57:08;19.10;60.40
65231;DHT22;51813;40.666;16.602;2023-05-07T12:59:36;19.10;60.50
65231;DHT22;51813;40.666;16.602;2023-05-07T13:02:02;19.10;60.90
65231;DHT22;51813;40.666;16.602;2023-05-07T13:04:28;19.10;60.80
65231;DHT22;51813;40.666;16.602;2023-05-07T13:06:54;19.10;60.60
65231;DHT22;51813;40.666;16.602;2023-05-07T13:09:20;19.10;60.40
65231;DHT22;51813;40.666;16.602;2023-05-07T13:11:45;19.10;60.30
65231;DHT22;51813;40.666;16.602;2023-05-07T13:14:12;19.10;60.50
65231;DHT22;51813;40.666;16.602;2023-05-07T13:16:37;19.10;60.40
65231;DHT22;51813;40.666;16.602;2023-05-07T13:19:03;19.10;60.60
65231;DHT22;51813;40.666;16.602;2023-05-07T13:21:29;19.10;60.30
65231;DHT22;51813;40.666;16.602;2023-05-07T13:23:57;19.10;60.40
65231;DHT22;51813;40.666;16.602;2023-05-07T13:26:23;19.10;60.60
65231;DHT22;51813;40.666;16.602;2023-05-07T13:28:49;19.10;60.50
65231;DHT22;51813;40.666;16.602;2023-05-07T13:31:19;19.10;60.30
65231;DHT22;51813;40.666;16.602;2023-05-07T13:33:46;19.10;60.40
65231;DHT22;51813;40.666;16.602;2023-05-07T13:36:12;19.10;60.50
65231;DHT22;51813;40.666;16.602;2023-05-07T13:38:38;19.10;60.20
65231;DHT22;51813;40.666;16.602;2023-05-07T13:41:04;19.10;60.30
65231;DHT22;51813;40.666;16.602;2023-05-07T13:43:30;19.10;61.00
65231;DHT22;51813;40.666;16.602;2023-05-07T13:45:57;19.10;60.30
65231;DHT22;51813;40.666;16.602;2023-05-07T13:48:22;19.10;60.50
65231;DHT22;51813;40.666;16.602;2023-05-07T13:50:48;19.10;60.50
65231;DHT22;51813;40.666;16.602;2023-05-07T13:53:14;19.10;60.50
65231;DHT22;51813;40.666;16.602;2023-05-07T13:55:43;19.10;60.30
65231;DHT22;51813;40.666;16.602;2023-05-07T13:58:09;19.10;60.50
65231;DHT22;51813;40.666;16.602;2023-05-07T14:00:35;19.20;60.40
65231;DHT22;51813;40.666;16.602;2023-05-07T14:03:00;19.20;60.20
65231;DHT22;51813;40.666;16.602;2023-05-07T14:05:26;19.20;60.20
65231;DHT22;51813;40.666;16.602;2023-05-07T14:07:54;19.10;60.20
65231;DHT22;51813;40.666;16.602;2023-05-07T14:10:20;19.20;60.40
65231;DHT22;51813;40.666;16.602;2023-05-07T14:12:46;19.20;60.30
65231;DHT22;51813;40.666;16.602;2023-05-07T14:15:13;19.20;60.20
65231;DHT22;51813;40.666;16.602;2023-05-07T14:17:39;19.20;60.30
65231;DHT22;51813;40.666;16.602;2023-05-07T14:20:05;19.20;60.40
65231;DHT22;51813;40.666;16.602;2023-05-07T14:22:33;19.20;60.30
65231;DHT22;51813;40.666;16.602;2023-05-07T14:24:59;19.20;60.20
65231;DHT22;51813;40.666;16.602;2023-05-07T14:27:25;19.20;60.20
65231;DHT22;51813;40.666;16.602;2023-05-07T14:29:50;19.20;60.20
65231;DHT22;51813;40.666;16.602;2023-05-07T14:32:19;19.20;60.30
65231;DHT22;51813;40.666;16.602;2023-05-07T14:34:45;19.20;60.30
65231;DHT22;51813;40.666;16.602;2023-05-07T14:37:11;19.20;60.20
65231;DHT22;51813;40.666;16.602;2023-05-07T14:39:37;19.20;60.20
65231;DHT22;51813;40.666;16.602;2023-05-07T14:42:03;19.20;60.20
65231;DHT22;51813;40.666;16.602;2023-05-07T14:44:28;19.20;60.10
65231;DHT22;51813;40.666;16.602;2023-05-07T14:46:55;19.20;60.10
65231;DHT22;51813;40.666;16.602;2023-05-07T14:49:20;19.20;60.10
65231;DHT22;51813;40.666;16.602;2023-05-07T14:51:46;19.20;60.20
65231;DHT22;51813;40.666;16.602;2023-05-07T14:54:13;19.20;60.20
65231;DHT22;51813;40.666;16.602;2023-05-07T14:56:40;19.20;60.10
65231;DHT22;51813;40.666;16.602;2023-05-07T14:59:06;19.20;60.20
65231;DHT22;51813;40.666;16.602;2023-05-07T15:01:32;19.20;60.20
65231;DHT22;51813;40.666;16.602;2023-05-07T15:04:00;19.20;60.20
65231;DHT22;51813;40.666;16.602;2023-05-07T15:06:25;19.20;60.30
65231;DHT22;51813;40.666;16.602;2023-05-07T15:08:52;19.20;60.40
65231;DHT22;51813;40.666;16.602;2023-05-07T15:11:17;19.20;60.40
65231;DHT22;51813;40.666;16.602;2023-05-07T15:13:43;19.20;60.30
65231;DHT22;51813;40.666;16.602;2023-05-07T15:16:09;19.20;60.30
65231;DHT22;51813;40.666;16.602;2023-05-07T15:18:35;19.20;60.20
65231;DHT22;51813;40.666;16.602;2023-05-07T15:21:01;19.20;60.20
65231;DHT22;51813;40.666;16.602;2023-05-07T15:23:27;19.20;60.20
65231;DHT22;51813;40.666;16.602;2023-05-07T15:25:53;19.20;60.30
65231;DHT22;51813;40.666;16.602;2023-05-07T15:28:19;19.20;60.30
65231;DHT22;51813;40.666;16.602;2023-05-07T15:30:45;19.20;60.30